Terminal Aerodrome Forecast
Issued by NWS Goodland, KS

Home | Current Version | Previous Version | Text Only | Print | Product List | Glossary On
Versions: 1 2 3 4 5 6 7 8 9 10 11 12 13 14 15 16 17 18 19
000
FTUS43 KGLD 180541
TAFGLD
TAF
KGLD 180541Z 1806/1906 VRB04KT P6SM SKC
     FM180800 VRB04KT 5SM BR SKC
     FM181300 19008KT P6SM SKC
     FM181800 20015KT P6SM SKC
     FM190000 20010KT P6SM SKC=

USA.gov is the U.S. government's official web portal to all federal, state and local government web resources and services.